sensor_id;sensor_type;location;lat;lon;timestamp;pressure;altitude;pressure_sealevel;temperature;humidity
65716;BME280;63484;52.054;8.518;2023-06-10T00:03:41;100645.59;;;16.12;87.84
65716;BME280;63484;52.054;8.518;2023-06-10T00:08:44;100642.88;;;16.03;88.40
65716;BME280;63484;52.054;8.518;2023-06-10T00:13:48;100641.56;;;15.97;88.53
65716;BME280;63484;52.054;8.518;2023-06-10T00:18:50;100641.97;;;15.93;89.11
65716;BME280;63484;52.054;8.518;2023-06-10T00:23:52;100634.25;;;15.90;89.43
65716;BME280;63484;52.054;8.518;2023-06-10T00:28:56;100638.84;;;15.88;88.93
65716;BME280;63484;52.054;8.518;2023-06-10T00:33:58;100636.44;;;15.85;88.88
65716;BME280;63484;52.054;8.518;2023-06-10T00:39:00;100640.34;;;15.70;88.95
65716;BME280;63484;52.054;8.518;2023-06-10T00:44:03;100641.50;;;15.56;89.84
65716;BME280;63484;52.054;8.518;2023-06-10T00:49:05;100637.53;;;15.51;89.81
65716;BME280;63484;52.054;8.518;2023-06-10T00:54:11;100642.38;;;15.46;90.22
65716;BME280;63484;52.054;8.518;2023-06-10T00:59:16;100646.81;;;15.34;90.34
65716;BME280;63484;52.054;8.518;2023-06-10T01:04:21;100642.97;;;15.27;90.63
65716;BME280;63484;52.054;8.518;2023-06-10T01:09:30;100648.03;;;15.19;90.69
65716;BME280;63484;52.054;8.518;2023-06-10T01:14:37;100654.81;;;15.12;90.95
65716;BME280;63484;52.054;8.518;2023-06-10T01:19:53;100653.34;;;15.08;90.84
65716;BME280;63484;52.054;8.518;2023-06-10T01:24:58;100644.44;;;14.98;91.14
65716;BME280;63484;52.054;8.518;2023-06-10T01:30:06;100645.91;;;14.91;91.79
65716;BME280;63484;52.054;8.518;2023-06-10T01:35:09;100644.00;;;14.93;91.45
65716;BME280;63484;52.054;8.518;2023-06-10T01:40:15;100645.31;;;14.87;91.44
65716;BME280;63484;52.054;8.518;2023-06-10T01:45:19;100653.13;;;14.78;91.46
65716;BME280;63484;52.054;8.518;2023-06-10T01:50:21;100664.66;;;14.77;92.07
65716;BME280;63484;52.054;8.518;2023-06-10T01:55:24;100668.53;;;14.73;91.61
65716;BME280;63484;52.054;8.518;2023-06-10T02:00:28;100664.66;;;14.66;92.17
65716;BME280;63484;52.054;8.518;2023-06-10T02:05:30;100673.09;;;14.60;92.49
65716;BME280;63484;52.054;8.518;2023-06-10T02:10:33;100672.84;;;14.52;92.95
65716;BME280;63484;52.054;8.518;2023-06-10T02:15:35;100677.63;;;14.47;92.86
65716;BME280;63484;52.054;8.518;2023-06-10T02:20:37;100675.97;;;14.46;92.59
65716;BME280;63484;52.054;8.518;2023-06-10T02:25:40;100678.13;;;14.41;92.54
65716;BME280;63484;52.054;8.518;2023-06-10T02:30:42;100682.41;;;14.31;92.65
65716;BME280;63484;52.054;8.518;2023-06-10T02:35:44;100695.16;;;14.26;93.93
65716;BME280;63484;52.054;8.518;2023-06-10T02:40:47;100697.00;;;14.24;93.70
65716;BME280;63484;52.054;8.518;2023-06-10T02:45:49;100692.94;;;14.20;93.70
65716;BME280;63484;52.054;8.518;2023-06-10T02:50:52;100694.97;;;14.16;93.43
65716;BME280;63484;52.054;8.518;2023-06-10T02:56:10;100699.88;;;14.10;93.85
65716;BME280;63484;52.054;8.518;2023-06-10T03:01:13;100696.59;;;14.06;93.54
65716;BME280;63484;52.054;8.518;2023-06-10T03:06:23;100704.53;;;14.06;93.03
65716;BME280;63484;52.054;8.518;2023-06-10T03:11:32;100699.63;;;14.13;92.92
65716;BME280;63484;52.054;8.518;2023-06-10T03:16:34;100702.91;;;14.16;92.05
65716;BME280;63484;52.054;8.518;2023-06-10T03:21:44;100698.75;;;14.25;91.97
65716;BME280;63484;52.054;8.518;2023-06-10T03:26:49;100697.88;;;14.24;91.62
65716;BME280;63484;52.054;8.518;2023-06-10T03:31:52;100705.81;;;14.24;92.19
65716;BME280;63484;52.054;8.518;2023-06-10T03:36:53;100694.16;;;14.27;91.42
65716;BME280;63484;52.054;8.518;2023-06-10T03:41:57;100703.06;;;14.26;91.67
65716;BME280;63484;52.054;8.518;2023-06-10T03:47:00;100708.88;;;14.31;91.92
65716;BME280;63484;52.054;8.518;2023-06-10T03:52:04;100712.94;;;14.35;91.10
65716;BME280;63484;52.054;8.518;2023-06-10T03:57:07;100712.16;;;14.45;90.52
65716;BME280;63484;52.054;8.518;2023-06-10T04:02:09;100707.50;;;14.60;89.15
65716;BME280;63484;52.054;8.518;2023-06-10T04:07:14;100701.03;;;15.08;86.98
65716;BME280;63484;52.054;8.518;2023-06-10T04:12:17;100712.38;;;15.43;85.23
65716;BME280;63484;52.054;8.518;2023-06-10T04:17:19;100711.72;;;15.62;83.84
65716;BME280;63484;52.054;8.518;2023-06-10T04:22:21;100710.81;;;15.83;82.80
65716;BME280;63484;52.054;8.518;2023-06-10T04:27:25;100711.25;;;15.99;78.39
65716;BME280;63484;52.054;8.518;2023-06-10T04:32:28;100718.69;;;16.37;76.09
65716;BME280;63484;52.054;8.518;2023-06-10T04:37:32;100718.72;;;16.57;73.22
65716;BME280;63484;52.054;8.518;2023-06-10T04:42:36;100721.28;;;16.69;72.32
65716;BME280;63484;52.054;8.518;2023-06-10T04:47:39;100717.28;;;16.74;70.89
65716;BME280;63484;52.054;8.518;2023-06-10T04:52:41;100720.97;;;16.83;71.20
65716;BME280;63484;52.054;8.518;2023-06-10T04:57:45;100726.22;;;16.94;70.77
65716;BME280;63484;52.054;8.518;2023-06-10T05:02:47;100728.16;;;16.92;70.08
65716;BME280;63484;52.054;8.518;2023-06-10T05:07:50;100727.34;;;17.01;70.11
65716;BME280;63484;52.054;8.518;2023-06-10T05:12:53;100725.25;;;17.25;69.30
65716;BME280;63484;52.054;8.518;2023-06-10T05:17:57;100725.28;;;17.34;68.31
65716;BME280;63484;52.054;8.518;2023-06-10T05:23:01;100728.47;;;17.38;68.88
65716;BME280;63484;52.054;8.518;2023-06-10T05:28:06;100730.38;;;17.47;68.74
65716;BME280;63484;52.054;8.518;2023-06-10T05:33:10;100724.50;;;17.53;68.07
65716;BME280;63484;52.054;8.518;2023-06-10T05:38:12;100745.16;;;17.79;67.32
65716;BME280;63484;52.054;8.518;2023-06-10T05:43:15;100738.84;;;17.80;67.33
65716;BME280;63484;52.054;8.518;2023-06-10T05:48:17;100747.84;;;18.18;67.03
65716;BME280;63484;52.054;8.518;2023-06-10T05:53:20;100737.25;;;18.46;65.78
65716;BME280;63484;52.054;8.518;2023-06-10T05:58:24;100736.66;;;18.62;65.07
65716;BME280;63484;52.054;8.518;2023-06-10T06:03:25;100738.63;;;18.60;64.17
65716;BME280;63484;52.054;8.518;2023-06-10T06:08:31;100742.72;;;18.54;64.19
65716;BME280;63484;52.054;8.518;2023-06-10T06:13:36;100744.19;;;18.95;63.71
65716;BME280;63484;52.054;8.518;2023-06-10T06:18:40;100738.38;;;19.46;62.53
65716;BME280;63484;52.054;8.518;2023-06-10T06:23:44;100734.03;;;20.16;60.45
65716;BME280;63484;52.054;8.518;2023-06-10T06:28:47;100735.50;;;20.01;60.29
65716;BME280;63484;52.054;8.518;2023-06-10T06:33:49;100737.66;;;20.33;59.35
65716;BME280;63484;52.054;8.518;2023-06-10T06:38:50;100734.94;;;21.11;55.39
65716;BME280;63484;52.054;8.518;2023-06-10T06:43:57;100738.50;;;23.07;50.11
65716;BME280;63484;52.054;8.518;2023-06-10T06:49:04;100740.66;;;25.89;43.67
65716;BME280;63484;52.054;8.518;2023-06-10T06:54:06;100748.75;;;28.04;38.43
65716;BME280;63484;52.054;8.518;2023-06-10T06:59:11;100751.59;;;29.85;35.09
65716;BME280;63484;52.054;8.518;2023-06-10T07:04:16;100752.56;;;30.66;33.69
65716;BME280;63484;52.054;8.518;2023-06-10T07:09:20;100758.81;;;31.40;31.65
65716;BME280;63484;52.054;8.518;2023-06-10T07:14:26;100754.41;;;31.93;30.47
65716;BME280;63484;52.054;8.518;2023-06-10T07:19:28;100761.34;;;32.07;29.99
65716;BME280;63484;52.054;8.518;2023-06-10T07:24:29;100761.94;;;32.09;30.00
65716;BME280;63484;52.054;8.518;2023-06-10T07:29:32;100749.34;;;31.97;30.55
65716;BME280;63484;52.054;8.518;2023-06-10T07:34:36;100757.59;;;31.36;31.84
65716;BME280;63484;52.054;8.518;2023-06-10T07:39:40;100761.97;;;31.37;32.09
65716;BME280;63484;52.054;8.518;2023-06-10T07:44:46;100756.75;;;31.11;31.47
65716;BME280;63484;52.054;8.518;2023-06-10T07:49:48;100759.78;;;31.46;32.31
65716;BME280;63484;52.054;8.518;2023-06-10T07:54:50;100763.56;;;30.46;32.45
65716;BME280;63484;52.054;8.518;2023-06-10T07:59:53;100769.44;;;30.99;32.04
65716;BME280;63484;52.054;8.518;2023-06-10T08:04:55;100765.19;;;31.03;31.87
65716;BME280;63484;52.054;8.518;2023-06-10T08:09:57;100768.94;;;31.08;31.64
65716;BME280;63484;52.054;8.518;2023-06-10T08:15:00;100768.69;;;31.89;30.97
65716;BME280;63484;52.054;8.518;2023-06-10T08:20:02;100770.69;;;30.47;32.16
65716;BME280;63484;52.054;8.518;2023-06-10T08:25:05;100759.00;;;30.03;33.73
65716;BME280;63484;52.054;8.518;2023-06-10T08:30:09;100751.13;;;28.39;35.78
65716;BME280;63484;52.054;8.518;2023-06-10T08:35:11;100758.09;;;27.20;38.68
65716;BME280;63484;52.054;8.518;2023-06-10T08:40:13;100751.56;;;26.59;40.02
65716;BME280;63484;52.054;8.518;2023-06-10T08:45:18;100744.91;;;25.63;43.58
65716;BME280;63484;52.054;8.518;2023-06-10T08:50:20;100737.94;;;25.54;43.70
65716;BME280;63484;52.054;8.518;2023-06-10T08:55:26;100745.25;;;25.60;42.52
65716;BME280;63484;52.054;8.518;2023-06-10T09:00:31;100735.03;;;25.55;42.82
65716;BME280;63484;52.054;8.518;2023-06-10T09:05:33;100743.78;;;25.57;42.08
65716;BME280;63484;52.054;8.518;2023-06-10T09:10:36;100748.69;;;25.25;43.24
65716;BME280;63484;52.054;8.518;2023-06-10T09:15:40;100743.50;;;25.67;43.07
65716;BME280;63484;52.054;8.518;2023-06-10T09:20:42;100743.13;;;25.26;44.05
65716;BME280;63484;52.054;8.518;2023-06-10T09:25:55;100740.03;;;25.15;44.64
65716;BME280;63484;52.054;8.518;2023-06-10T09:31:05;100736.69;;;24.98;45.54
65716;BME280;63484;52.054;8.518;2023-06-10T09:36:07;100736.75;;;25.42;45.49
65716;BME280;63484;52.054;8.518;2023-06-10T09:41:11;100741.81;;;25.08;45.67
65716;BME280;63484;52.054;8.518;2023-06-10T09:46:17;100747.78;;;24.81;46.95
65716;BME280;63484;52.054;8.518;2023-06-10T09:51:19;100739.75;;;25.10;45.53
65716;BME280;63484;52.054;8.518;2023-06-10T09:56:32;100735.53;;;25.44;44.67
65716;BME280;63484;52.054;8.518;2023-06-10T10:01:36;100741.44;;;25.11;45.91
65716;BME280;63484;52.054;8.518;2023-06-10T10:06:38;100739.16;;;25.37;44.16
65716;BME280;63484;52.054;8.518;2023-06-10T10:11:44;100733.66;;;25.59;43.89
65716;BME280;63484;52.054;8.518;2023-06-10T10:16:48;100740.56;;;25.83;43.30
65716;BME280;63484;52.054;8.518;2023-06-10T10:21:57;100738.97;;;25.53;44.84
65716;BME280;63484;52.054;8.518;2023-06-10T10:27:01;100735.44;;;26.03;44.18
65716;BME280;63484;52.054;8.518;2023-06-10T10:32:08;100741.38;;;26.13;42.58
65716;BME280;63484;52.054;8.518;2023-06-10T10:37:13;100732.75;;;25.88;43.21
65716;BME280;63484;52.054;8.518;2023-06-10T10:42:15;100736.03;;;26.19;42.89
65716;BME280;63484;52.054;8.518;2023-06-10T10:47:21;100730.41;;;26.00;42.18
65716;BME280;63484;52.054;8.518;2023-06-10T10:52:26;100738.53;;;25.85;39.77
65716;BME280;63484;52.054;8.518;2023-06-10T10:57:30;100743.72;;;26.01;39.71
65716;BME280;63484;52.054;8.518;2023-06-10T11:02:40;100736.28;;;26.03;38.46
65716;BME280;63484;52.054;8.518;2023-06-10T11:07:52;100734.34;;;26.39;38.18
65716;BME280;63484;52.054;8.518;2023-06-10T11:12:54;100733.06;;;26.56;37.90
65716;BME280;63484;52.054;8.518;2023-06-10T11:18:14;100724.47;;;26.25;37.05
65716;BME280;63484;52.054;8.518;2023-06-10T11:23:26;100722.13;;;26.64;37.44
65716;BME280;63484;52.054;8.518;2023-06-10T11:28:31;100734.06;;;26.70;35.65
65716;BME280;63484;52.054;8.518;2023-06-10T11:33:38;100726.03;;;27.10;35.46
65716;BME280;63484;52.054;8.518;2023-06-10T11:38:40;100727.41;;;26.72;34.41
65716;BME280;63484;52.054;8.518;2023-06-10T11:43:42;100718.88;;;26.96;35.38
65716;BME280;63484;52.054;8.518;2023-06-10T11:48:50;100722.38;;;27.24;35.09
65716;BME280;63484;52.054;8.518;2023-06-10T11:53:53;100714.84;;;27.13;35.96
65716;BME280;63484;52.054;8.518;2023-06-10T11:58:56;100714.69;;;27.21;34.73
65716;BME280;63484;52.054;8.518;2023-06-10T12:04:02;100712.66;;;27.30;34.39
65716;BME280;63484;52.054;8.518;2023-06-10T12:09:04;100706.97;;;27.18;34.81
65716;BME280;63484;52.054;8.518;2023-06-10T12:14:05;100695.94;;;27.48;34.74
65716;BME280;63484;52.054;8.518;2023-06-10T12:19:08;100696.47;;;27.37;34.87
65716;BME280;63484;52.054;8.518;2023-06-10T12:24:11;100684.75;;;27.64;35.16
65716;BME280;63484;52.054;8.518;2023-06-10T12:29:31;100694.69;;;27.57;34.63
65716;BME280;63484;52.054;8.518;2023-06-10T12:34:38;100695.03;;;27.34;35.21
65716;BME280;63484;52.054;8.518;2023-06-10T12:39:41;100680.78;;;27.60;35.89
65716;BME280;63484;52.054;8.518;2023-06-10T12:44:43;100683.06;;;27.63;37.38
65716;BME280;63484;52.054;8.518;2023-06-10T12:49:46;100682.38;;;27.95;37.68
65716;BME280;63484;52.054;8.518;2023-06-10T12:54:47;100674.66;;;27.92;37.19
65716;BME280;63484;52.054;8.518;2023-06-10T12:59:49;100682.38;;;27.95;37.99
65716;BME280;63484;52.054;8.518;2023-06-10T13:04:54;100695.31;;;28.12;37.07
65716;BME280;63484;52.054;8.518;2023-06-10T13:09:56;100684.16;;;27.75;37.46
65716;BME280;63484;52.054;8.518;2023-06-10T13:14:57;100678.22;;;28.05;36.86
65716;BME280;63484;52.054;8.518;2023-06-10T13:20:00;100675.75;;;28.17;36.39
65716;BME280;63484;52.054;8.518;2023-06-10T13:25:04;100670.56;;;28.28;36.50
65716;BME280;63484;52.054;8.518;2023-06-10T13:30:08;100657.84;;;28.42;35.79
65716;BME280;63484;52.054;8.518;2023-06-10T13:35:12;100647.22;;;28.34;36.43
65716;BME280;63484;52.054;8.518;2023-06-10T13:40:14;100641.44;;;28.30;37.81
65716;BME280;63484;52.054;8.518;2023-06-10T13:45:16;100632.47;;;28.43;36.81
65716;BME280;63484;52.054;8.518;2023-06-10T13:50:19;100624.78;;;28.53;37.57
65716;BME280;63484;52.054;8.518;2023-06-10T13:55:21;100631.19;;;28.45;36.64
65716;BME280;63484;52.054;8.518;2023-06-10T14:00:25;100614.56;;;28.48;37.15
65716;BME280;63484;52.054;8.518;2023-06-10T14:05:29;100618.50;;;28.46;37.16
65716;BME280;63484;52.054;8.518;2023-06-10T14:10:31;100620.78;;;28.42;37.55
65716;BME280;63484;52.054;8.518;2023-06-10T14:15:33;100609.13;;;28.42;37.49
65716;BME280;63484;52.054;8.518;2023-06-10T14:20:36;100618.50;;;28.72;35.84
65716;BME280;63484;52.054;8.518;2023-06-10T14:25:38;100621.63;;;28.69;37.50
65716;BME280;63484;52.054;8.518;2023-06-10T14:30:39;100617.03;;;28.63;37.21
65716;BME280;63484;52.054;8.518;2023-06-10T14:35:45;100609.72;;;28.83;37.35
65716;BME280;63484;52.054;8.518;2023-06-10T14:40:46;100597.78;;;28.97;36.78
65716;BME280;63484;52.054;8.518;2023-06-10T14:45:48;100614.72;;;28.80;38.45
65716;BME280;63484;52.054;8.518;2023-06-10T14:50:52;100609.94;;;28.82;37.67
65716;BME280;63484;52.054;8.518;2023-06-10T14:55:55;100599.06;;;28.88;37.08
65716;BME280;63484;52.054;8.518;2023-06-10T15:00:57;100600.50;;;28.97;37.93
65716;BME280;63484;52.054;8.518;2023-06-10T15:06:00;100593.84;;;29.00;37.44
65716;BME280;63484;52.054;8.518;2023-06-10T15:11:02;100586.13;;;28.97;38.56
65716;BME280;63484;52.054;8.518;2023-06-10T15:16:04;100581.00;;;28.76;38.52
65716;BME280;63484;52.054;8.518;2023-06-10T15:21:07;100575.97;;;28.79;38.85
65716;BME280;63484;52.054;8.518;2023-06-10T15:26:09;100567.41;;;28.95;37.89
65716;BME280;63484;52.054;8.518;2023-06-10T15:31:11;100571.56;;;28.91;37.94
65716;BME280;63484;52.054;8.518;2023-06-10T15:36:14;100564.94;;;28.81;38.56
65716;BME280;63484;52.054;8.518;2023-06-10T15:41:16;100558.06;;;28.78;38.75
65716;BME280;63484;52.054;8.518;2023-06-10T15:46:18;100557.84;;;28.80;39.06
65716;BME280;63484;52.054;8.518;2023-06-10T15:51:21;100557.88;;;28.73;39.34
65716;BME280;63484;52.054;8.518;2023-06-10T15:56:25;100548.38;;;28.51;37.35
65716;BME280;63484;52.054;8.518;2023-06-10T16:01:27;100565.41;;;28.58;37.15
65716;BME280;63484;52.054;8.518;2023-06-10T16:06:30;100566.22;;;28.65;37.40
65716;BME280;63484;52.054;8.518;2023-06-10T16:11:32;100559.56;;;28.68;38.89
65716;BME280;63484;52.054;8.518;2023-06-10T16:16:34;100548.34;;;28.58;39.20
65716;BME280;63484;52.054;8.518;2023-06-10T16:21:37;100552.50;;;28.60;38.65
65716;BME280;63484;52.054;8.518;2023-06-10T16:26:40;100552.69;;;28.65;39.23
65716;BME280;63484;52.054;8.518;2023-06-10T16:31:42;100558.34;;;28.44;38.82
65716;BME280;63484;52.054;8.518;2023-06-10T16:36:45;100553.16;;;28.49;39.25
65716;BME280;63484;52.054;8.518;2023-06-10T16:41:46;100547.94;;;28.41;39.12
65716;BME280;63484;52.054;8.518;2023-06-10T16:46:48;100546.69;;;28.37;38.71
65716;BME280;63484;52.054;8.518;2023-06-10T16:51:53;100549.59;;;28.42;38.52
65716;BME280;63484;52.054;8.518;2023-06-10T16:56:55;100542.56;;;28.21;38.70
65716;BME280;63484;52.054;8.518;2023-06-10T17:01:57;100555.84;;;28.29;39.75
65716;BME280;63484;52.054;8.518;2023-06-10T17:07:00;100547.53;;;28.24;38.47
65716;BME280;63484;52.054;8.518;2023-06-10T17:12:02;100552.75;;;28.26;37.30
65716;BME280;63484;52.054;8.518;2023-06-10T17:17:05;100554.84;;;28.17;38.08
65716;BME280;63484;52.054;8.518;2023-06-10T17:22:08;100551.31;;;28.17;38.37
65716;BME280;63484;52.054;8.518;2023-06-10T17:27:10;100549.44;;;28.17;39.48
65716;BME280;63484;52.054;8.518;2023-06-10T17:32:12;100561.28;;;27.97;39.46
65716;BME280;63484;52.054;8.518;2023-06-10T17:37:15;100562.09;;;27.84;39.50
65716;BME280;63484;52.054;8.518;2023-06-10T17:42:16;100565.84;;;27.70;39.88
65716;BME280;63484;52.054;8.518;2023-06-10T17:47:18;100564.78;;;27.65;39.93
65716;BME280;63484;52.054;8.518;2023-06-10T17:52:22;100564.13;;;27.50;40.44
65716;BME280;63484;52.054;8.518;2023-06-10T17:57:23;100569.72;;;27.42;41.34
65716;BME280;63484;52.054;8.518;2023-06-10T18:02:25;100564.28;;;27.29;41.74
65716;BME280;63484;52.054;8.518;2023-06-10T18:07:28;100568.03;;;27.28;42.30
65716;BME280;63484;52.054;8.518;2023-06-10T18:12:30;100568.13;;;27.06;42.68
65716;BME280;63484;52.054;8.518;2023-06-10T18:17:32;100571.66;;;27.07;42.96
65716;BME280;63484;52.054;8.518;2023-06-10T18:22:37;100573.03;;;26.90;43.92
65716;BME280;63484;52.054;8.518;2023-06-10T18:27:39;100567.09;;;26.67;44.13
65716;BME280;63484;52.054;8.518;2023-06-10T18:32:41;100573.81;;;26.50;44.80
65716;BME280;63484;52.054;8.518;2023-06-10T18:37:46;100567.75;;;26.41;45.13
65716;BME280;63484;52.054;8.518;2023-06-10T18:42:48;100573.25;;;26.27;45.45
65716;BME280;63484;52.054;8.518;2023-06-10T18:47:50;100579.63;;;26.19;46.05
65716;BME280;63484;52.054;8.518;2023-06-10T18:52:53;100579.91;;;26.03;46.38
65716;BME280;63484;52.054;8.518;2023-06-10T18:57:55;100583.97;;;25.99;46.71
65716;BME280;63484;52.054;8.518;2023-06-10T19:02:56;100605.22;;;25.87;47.05
65716;BME280;63484;52.054;8.518;2023-06-10T19:08:03;100616.34;;;25.78;47.86
65716;BME280;63484;52.054;8.518;2023-06-10T19:13:04;100617.09;;;25.51;46.59
65716;BME280;63484;52.054;8.518;2023-06-10T19:18:07;100625.09;;;25.30;46.62
65716;BME280;63484;52.054;8.518;2023-06-10T19:23:10;100627.47;;;25.04;46.45
65716;BME280;63484;52.054;8.518;2023-06-10T19:28:12;100639.34;;;24.80;45.33
65716;BME280;63484;52.054;8.518;2023-06-10T19:33:14;100631.97;;;24.59;45.62
65716;BME280;63484;52.054;8.518;2023-06-10T19:38:17;100644.34;;;24.31;46.15
65716;BME280;63484;52.054;8.518;2023-06-10T19:43:19;100642.69;;;24.08;46.89
65716;BME280;63484;52.054;8.518;2023-06-10T19:48:21;100643.53;;;23.86;47.52
65716;BME280;63484;52.054;8.518;2023-06-10T19:53:24;100641.47;;;23.65;47.85
65716;BME280;63484;52.054;8.518;2023-06-10T19:58:26;100650.16;;;23.45;48.73
65716;BME280;63484;52.054;8.518;2023-06-10T20:03:30;100650.06;;;23.22;49.45
65716;BME280;63484;52.054;8.518;2023-06-10T20:08:33;100645.81;;;22.97;50.75
65716;BME280;63484;52.054;8.518;2023-06-10T20:13:35;100649.84;;;22.93;50.65
65716;BME280;63484;52.054;8.518;2023-06-10T20:18:37;100657.97;;;22.69;51.37
65716;BME280;63484;52.054;8.518;2023-06-10T20:23:40;100668.00;;;22.43;52.56
65716;BME280;63484;52.054;8.518;2023-06-10T20:28:42;100665.00;;;22.14;53.97
65716;BME280;63484;52.054;8.518;2023-06-10T20:33:44;100675.03;;;21.87;54.41
65716;BME280;63484;52.054;8.518;2023-06-10T20:38:47;100684.47;;;21.66;56.19
65716;BME280;63484;52.054;8.518;2023-06-10T20:43:49;100690.97;;;21.47;56.79
65716;BME280;63484;52.054;8.518;2023-06-10T20:48:51;100687.56;;;21.29;58.12
65716;BME280;63484;52.054;8.518;2023-06-10T20:53:54;100695.88;;;21.18;59.08
65716;BME280;63484;52.054;8.518;2023-06-10T20:58:56;100706.00;;;21.07;60.45
65716;BME280;63484;52.054;8.518;2023-06-10T21:03:57;100711.06;;;20.92;61.63
65716;BME280;63484;52.054;8.518;2023-06-10T21:09:03;100707.28;;;20.77;61.98
65716;BME280;63484;52.054;8.518;2023-06-10T21:14:05;100715.34;;;20.59;62.70
65716;BME280;63484;52.054;8.518;2023-06-10T21:19:07;100721.19;;;20.55;62.63
65716;BME280;63484;52.054;8.518;2023-06-10T21:24:12;100717.81;;;20.53;63.03
65716;BME280;63484;52.054;8.518;2023-06-10T21:29:14;100719.34;;;20.55;62.38
65716;BME280;63484;52.054;8.518;2023-06-10T21:34:16;100719.03;;;20.41;63.01
65716;BME280;63484;52.054;8.518;2023-06-10T21:39:19;100723.97;;;20.28;63.25
65716;BME280;63484;52.054;8.518;2023-06-10T21:44:20;100725.59;;;20.11;63.85
65716;BME280;63484;52.054;8.518;2023-06-10T21:49:22;100727.66;;;20.00;63.78
65716;BME280;63484;52.054;8.518;2023-06-10T21:54:25;100730.78;;;19.95;64.39
65716;BME280;63484;52.054;8.518;2023-06-10T21:59:30;100722.25;;;19.92;64.49
65716;BME280;63484;52.054;8.518;2023-06-10T22:04:32;100724.13;;;19.82;64.95
65716;BME280;63484;52.054;8.518;2023-06-10T22:09:35;100731.66;;;19.69;66.56
65716;BME280;63484;52.054;8.518;2023-06-10T22:14:37;100728.25;;;19.49;67.51
65716;BME280;63484;52.054;8.518;2023-06-10T22:19:39;100729.56;;;19.36;68.58
65716;BME280;63484;52.054;8.518;2023-06-10T22:24:46;100736.66;;;19.17;69.02
65716;BME280;63484;52.054;8.518;2023-06-10T22:29:50;100742.56;;;19.11;69.29
65716;BME280;63484;52.054;8.518;2023-06-10T22:34:51;100745.06;;;19.13;69.04
65716;BME280;63484;52.054;8.518;2023-06-10T22:39:54;100753.97;;;19.04;69.46
65716;BME280;63484;52.054;8.518;2023-06-10T22:44:56;100750.31;;;18.95;70.42
65716;BME280;63484;52.054;8.518;2023-06-10T22:49:58;100743.22;;;18.86;70.13
65716;BME280;63484;52.054;8.518;2023-06-10T22:55:01;100742.53;;;18.75;70.44
65716;BME280;63484;52.054;8.518;2023-06-10T23:00:06;100744.38;;;18.65;70.88
65716;BME280;63484;52.054;8.518;2023-06-10T23:05:09;100749.28;;;18.50;73.77
65716;BME280;63484;52.054;8.518;2023-06-10T23:10:12;100754.75;;;18.30;73.35
65716;BME280;63484;52.054;8.518;2023-06-10T23:15:14;100753.75;;;18.12;75.36
65716;BME280;63484;52.054;8.518;2023-06-10T23:20:16;100756.91;;;17.86;76.16
65716;BME280;63484;52.054;8.518;2023-06-10T23:25:21;100759.41;;;17.78;76.58
65716;BME280;63484;52.054;8.518;2023-06-10T23:30:25;100758.97;;;17.73;78.22
65716;BME280;63484;52.054;8.518;2023-06-10T23:35:28;100757.56;;;17.60;78.83
65716;BME280;63484;52.054;8.518;2023-06-10T23:40:32;100755.03;;;17.49;78.52
65716;BME280;63484;52.054;8.518;2023-06-10T23:45:33;100750.72;;;17.37;79.12
65716;BME280;63484;52.054;8.518;2023-06-10T23:50:35;100759.22;;;17.21;80.73
65716;BME280;63484;52.054;8.518;2023-06-10T23:55:39;100761.09;;;17.10;81.08
